首页
METAR-TAF:

METAR-TAF

机场 :

巴克烏, 罗马尼亚

纬度: 46-35N, 经度: 026-58E, 海拔: 184米

当前天气观测

该预报发布于24分钟前的10:30 UTC
风速8节,风向北转西北,在西转西北之间变化
温度 30°C
湿度 38%
气压 1012 hPa
能见度10公里或以上
1500米以下无云,无积雨云

METAR: LRBC 201030Z 33008KT 300V360 CAVOK 30/14 Q1012

时间: 13:54 (10:54 UTC)

预报

该预报发布于2小时和54分钟前的08:00 UTC
预报有效从20日的 09点(UTC)到 20日的 18点(UTC)
风速6节,风向
能见度10公里或以上
多云层高于6500英尺

TAF: LRBC 200800Z 2009/2018 35006KT 9999 BKN065

超过4000个机场的气象观测和天气预报(METAR&TAF报告)。

可查询的气象台以黄色和红色小点在地图上表示。

将鼠标移到小点上方,可查看气象台名称。

然后点击查看天气观测和预报。

如需切换地图:点击带黑十字的绿色按钮放大地图;点击带横线的绿色按钮缩小地图;或者点击绿色箭头查看邻近地区的地图。


METAR-TAF: